Dayville, OR

8:28 PM PDT on September 18, 2014 (GMT -0700)
Grant County Regional | Change Station
CLOSE
Current Station
Airport
Location: Grant County,
Elevation: 3698 ft
Nearby Weather Stations

Elev 3698 ft 44.40 °N, 118.96 °W | Updated 13 minutes ago

Mostly Cloudy
Mostly Cloudy
65 °F
Feels Like 65 °F
N
8
Wind Variable Wind from WNW

Today
High -- | Low -- °F
--% Chance of Precip.
Yesterday
High -- | Low -- °F
Precip. -- in
6:40 AM 7:02 PM
Waning Crescent, 22% visible
Pressure 29.96 in
Visibility 10.0 miles
Clouds Scattered Clouds 5500 ft
Dew Point 46 °F
Humidity 51%
Rainfall 0.00 in
Snow Depth 0 in , 0 in , 0 in
UV 0 out of 12
Pollen 5.00 out of 12
Air Quality Not available.
Flu Activity Not available.
METAR KGCD 190315Z AUTO 30007KT 10SM SCT055 18/08 A2996 RMK AO2 T01830080

More Conditions Fewer Conditions

Pressure 29.96 in
Visibility 10.0 miles
Clouds Scattered Clouds 5500 ft
Dew Point 46 °F
Humidity 51%
Rainfall 0.00 in
Snow Depth 0 in , 0 in , 0 in
UV 0 out of 12
Pollen 5.00 out of 12
Air Quality Not available.
Flu Activity Not available.
METAR KGCD 190315Z AUTO 30007KT 10SM SCT055 18/08 A2996 RMK AO2 T01830080

More Conditions Fewer Conditions

10-Day Weather Forecast

Almanac

Astronomy

Sep. 18, 2014 Rise Set
Actual Time 6:40 AM PDT 7:02 PM PDT
Civil Twilight 6:11 AM PDT 7:31 PM PDT
Nautical Twilight 5:37 AM PDT 8:06 PM PDT
Astronomical Twilight 5:01 AM PDT 8:41 PM PDT
Moon 1:27 AM PDT (9/18) 4:05 PM PDT (9/18)
Length of Visible Light 13h 20m
Length of Day
12h 22m
Tomorrow will be 3m 3s shorter.
Waning Crescent, 22% of the Moon is Illuminated
Today
Waning Crescent
Sep 24
New
Oct 1
First Quarter
Oct 8
Full
Oct 15
Last Quarter

Today's Extremes

State Highs State Lows

Community

WunderPhotos

Upload Photos

1,754,551 photos uploaded!

Nearby

Snow Depth

Station Depth Elevation
Santiam Junction 0 in 3750 ft
Madison Butte 0 in 5250 ft
Billie Creek Divide 0 in 5300 ft
Seine Creek 0 in 2000 ft
Mckenzie 0 in 4800 ft

Earthquake Activity

City Distance Mag. Time & Date
No recent earthquake activity has been reported nearby.
Minimum magnitude displayed is 2.5.

Coastal Water Temperatures

Place Temperature
No Stations Reporting

Nearby Weather Stations